sensor_id;sensor_type;location;lat;lon;timestamp;pressure;altitude;pressure_sealevel;temperature
57468;BMP280;43311;51.196;7.518;2023-10-13T00:01:55;96796.19;;;15.73
57468;BMP280;43311;51.196;7.518;2023-10-13T00:04:21;96781.19;;;15.70
57468;BMP280;43311;51.196;7.518;2023-10-13T00:06:56;96782.81;;;15.67
57468;BMP280;43311;51.196;7.518;2023-10-13T00:09:27;96779.97;;;15.62
57468;BMP280;43311;51.196;7.518;2023-10-13T00:12:03;96776.72;;;15.58
57468;BMP280;43311;51.196;7.518;2023-10-13T00:14:28;96776.84;;;15.54
57468;BMP280;43311;51.196;7.518;2023-10-13T00:17:01;96768.63;;;15.52
57468;BMP280;43311;51.196;7.518;2023-10-13T00:19:30;96776.41;;;15.56
57468;BMP280;43311;51.196;7.518;2023-10-13T00:22:25;96770.41;;;15.55
57468;BMP280;43311;51.196;7.518;2023-10-13T00:24:53;96763.22;;;15.56
57468;BMP280;43311;51.196;7.518;2023-10-13T00:27:24;96762.03;;;15.57
57468;BMP280;43311;51.196;7.518;2023-10-13T00:30:02;96765.72;;;15.59
57468;BMP280;43311;51.196;7.518;2023-10-13T00:32:50;96757.19;;;15.55
57468;BMP280;43311;51.196;7.518;2023-10-13T00:35:26;96750.56;;;15.51
57468;BMP280;43311;51.196;7.518;2023-10-13T00:38:02;96753.19;;;15.51
57468;BMP280;43311;51.196;7.518;2023-10-13T00:40:43;96747.19;;;15.50
57468;BMP280;43311;51.196;7.518;2023-10-13T00:43:10;96751.16;;;15.55
57468;BMP280;43311;51.196;7.518;2023-10-13T00:45:45;96754.69;;;15.52
57468;BMP280;43311;51.196;7.518;2023-10-13T00:48:21;96746.75;;;15.52
57468;BMP280;43311;51.196;7.518;2023-10-13T00:50:49;96748.75;;;15.48
57468;BMP280;43311;51.196;7.518;2023-10-13T00:53:15;96734.69;;;15.51
57468;BMP280;43311;51.196;7.518;2023-10-13T00:55:41;96741.91;;;15.50
57468;BMP280;43311;51.196;7.518;2023-10-13T00:58:07;96727.94;;;15.50
57468;BMP280;43311;51.196;7.518;2023-10-13T01:00:37;96722.50;;;15.44
57468;BMP280;43311;51.196;7.518;2023-10-13T01:03:12;96729.84;;;15.49
57468;BMP280;43311;51.196;7.518;2023-10-13T01:05:38;96725.13;;;15.44
57468;BMP280;43311;51.196;7.518;2023-10-13T01:08:05;96727.94;;;15.50
57468;BMP280;43311;51.196;7.518;2023-10-13T01:10:33;96727.50;;;15.51
57468;BMP280;43311;51.196;7.518;2023-10-13T01:13:02;96722.91;;;15.43
57468;BMP280;43311;51.196;7.518;2023-10-13T01:15:28;96718.66;;;15.45
57468;BMP280;43311;51.196;7.518;2023-10-13T01:18:08;96715.84;;;15.40
57468;BMP280;43311;51.196;7.518;2023-10-13T01:20:39;96718.81;;;15.42
57468;BMP280;43311;51.196;7.518;2023-10-13T01:23:14;96713.53;;;15.42
57468;BMP280;43311;51.196;7.518;2023-10-13T01:25:50;96721.75;;;15.44
57468;BMP280;43311;51.196;7.518;2023-10-13T01:28:16;96705.59;;;15.42
57468;BMP280;43311;51.196;7.518;2023-10-13T01:30:42;96705.88;;;15.44
57468;BMP280;43311;51.196;7.518;2023-10-13T01:33:09;96706.00;;;15.40
57468;BMP280;43311;51.196;7.518;2023-10-13T01:35:37;96696.91;;;15.41
57468;BMP280;43311;51.196;7.518;2023-10-13T01:38:07;96700.31;;;15.42
57468;BMP280;43311;51.196;7.518;2023-10-13T01:40:34;96687.09;;;15.42
57468;BMP280;43311;51.196;7.518;2023-10-13T01:43:00;96692.69;;;15.44
57468;BMP280;43311;51.196;7.518;2023-10-13T01:45:26;96683.00;;;15.41
57468;BMP280;43311;51.196;7.518;2023-10-13T01:47:54;96683.28;;;15.43
57468;BMP280;43311;51.196;7.518;2023-10-13T01:50:20;96673.59;;;15.49
57468;BMP280;43311;51.196;7.518;2023-10-13T01:52:53;96683.91;;;15.47
57468;BMP280;43311;51.196;7.518;2023-10-13T01:55:25;96677.25;;;15.42
57468;BMP280;43311;51.196;7.518;2023-10-13T01:57:51;96672.69;;;15.43
57468;BMP280;43311;51.196;7.518;2023-10-13T02:00:17;96675.66;;;15.45
57468;BMP280;43311;51.196;7.518;2023-10-13T02:02:46;96665.97;;;15.42
57468;BMP280;43311;51.196;7.518;2023-10-13T02:05:16;96666.81;;;15.39
57468;BMP280;43311;51.196;7.518;2023-10-13T02:07:42;96669.03;;;15.40
57468;BMP280;43311;51.196;7.518;2023-10-13T02:10:11;96650.97;;;15.39
57468;BMP280;43311;51.196;7.518;2023-10-13T02:12:38;96666.25;;;15.44
57468;BMP280;43311;51.196;7.518;2023-10-13T02:15:11;96652.88;;;15.38
57468;BMP280;43311;51.196;7.518;2023-10-13T02:17:46;96649.50;;;15.38
57468;BMP280;43311;51.196;7.518;2023-10-13T02:20:17;96639.38;;;15.36
57468;BMP280;43311;51.196;7.518;2023-10-13T02:22:55;96643.63;;;15.34
57468;BMP280;43311;51.196;7.518;2023-10-13T02:25:21;96642.00;;;15.36
57468;BMP280;43311;51.196;7.518;2023-10-13T02:28:09;96642.44;;;15.35
57468;BMP280;43311;51.196;7.518;2023-10-13T02:30:43;96639.53;;;15.42
57468;BMP280;43311;51.196;7.518;2023-10-13T02:33:14;96624.84;;;15.41
57468;BMP280;43311;51.196;7.518;2023-10-13T02:35:40;96628.06;;;15.36
57468;BMP280;43311;51.196;7.518;2023-10-13T02:38:24;96622.94;;;15.41
57468;BMP280;43311;51.196;7.518;2023-10-13T02:40:54;96606.34;;;15.41
57468;BMP280;43311;51.196;7.518;2023-10-13T02:43:21;96603.09;;;15.37
57468;BMP280;43311;51.196;7.518;2023-10-13T02:45:54;96607.09;;;15.41
57468;BMP280;43311;51.196;7.518;2023-10-13T02:48:24;96600.47;;;15.37
57468;BMP280;43311;51.196;7.518;2023-10-13T02:50:56;96593.72;;;15.36
57468;BMP280;43311;51.196;7.518;2023-10-13T02:53:22;96595.50;;;15.48
57468;BMP280;43311;51.196;7.518;2023-10-13T02:55:52;96608.88;;;15.44
57468;BMP280;43311;51.196;7.518;2023-10-13T02:58:18;96589.47;;;15.47
57468;BMP280;43311;51.196;7.518;2023-10-13T03:00:44;96588.16;;;15.43
57468;BMP280;43311;51.196;7.518;2023-10-13T03:03:10;96579.81;;;15.44
57468;BMP280;43311;51.196;7.518;2023-10-13T03:05:35;96586.97;;;15.44
57468;BMP280;43311;51.196;7.518;2023-10-13T03:08:04;96576.72;;;15.46
57468;BMP280;43311;51.196;7.518;2023-10-13T03:10:30;96570.53;;;15.49
57468;BMP280;43311;51.196;7.518;2023-10-13T03:12:55;96563.19;;;15.44
57468;BMP280;43311;51.196;7.518;2023-10-13T03:15:21;96568.47;;;15.44
57468;BMP280;43311;51.196;7.518;2023-10-13T03:17:54;96565.88;;;15.53
57468;BMP280;43311;51.196;7.518;2023-10-13T03:20:20;96563.22;;;15.53
57468;BMP280;43311;51.196;7.518;2023-10-13T03:22:52;96567.31;;;15.54
57468;BMP280;43311;51.196;7.518;2023-10-13T03:25:18;96558.38;;;15.51
57468;BMP280;43311;51.196;7.518;2023-10-13T03:28:08;96561.31;;;15.53
57468;BMP280;43311;51.196;7.518;2023-10-13T03:30:37;96554.09;;;15.54
57468;BMP280;43311;51.196;7.518;2023-10-13T03:33:12;96558.22;;;15.55
57468;BMP280;43311;51.196;7.518;2023-10-13T03:35:40;96557.06;;;15.56
57468;BMP280;43311;51.196;7.518;2023-10-13T03:38:09;96547.38;;;15.53
57468;BMP280;43311;51.196;7.518;2023-10-13T03:40:50;96547.97;;;15.57
57468;BMP280;43311;51.196;7.518;2023-10-13T03:43:29;96536.34;;;15.54
57468;BMP280;43311;51.196;7.518;2023-10-13T03:45:55;96540.47;;;15.55
57468;BMP280;43311;51.196;7.518;2023-10-13T03:48:32;96539.72;;;15.55
57468;BMP280;43311;51.196;7.518;2023-10-13T03:51:06;96529.47;;;15.57
57468;BMP280;43311;51.196;7.518;2023-10-13T03:53:41;96528.56;;;15.60
57468;BMP280;43311;51.196;7.518;2023-10-13T03:56:28;96524.47;;;15.59
57468;BMP280;43311;51.196;7.518;2023-10-13T03:58:54;96514.78;;;15.56
57468;BMP280;43311;51.196;7.518;2023-10-13T04:01:23;96511.41;;;15.64
57468;BMP280;43311;51.196;7.518;2023-10-13T04:04:10;96505.38;;;15.64
57468;BMP280;43311;51.196;7.518;2023-10-13T04:06:40;96502.59;;;15.67
57468;BMP280;43311;51.196;7.518;2023-10-13T04:09:19;96496.56;;;15.67
57468;BMP280;43311;51.196;7.518;2023-10-13T04:14:29;96495.69;;;15.70
57468;BMP280;43311;51.196;7.518;2023-10-13T04:17:13;96490.25;;;15.64
57468;BMP280;43311;51.196;7.518;2023-10-13T04:19:48;96491.72;;;15.65
57468;BMP280;43311;51.196;7.518;2023-10-13T04:27:57;96479.22;;;15.66
57468;BMP280;43311;51.196;7.518;2023-10-13T04:33:38;96477.75;;;15.65
57468;BMP280;43311;51.196;7.518;2023-10-13T04:36:16;96483.03;;;15.65
57468;BMP280;43311;51.196;7.518;2023-10-13T04:38:47;96483.66;;;15.69
57468;BMP280;43311;51.196;7.518;2023-10-13T04:41:39;96476.91;;;15.68
57468;BMP280;43311;51.196;7.518;2023-10-13T04:44:11;96479.09;;;15.69
57468;BMP280;43311;51.196;7.518;2023-10-13T04:46:48;96468.81;;;15.71
57468;BMP280;43311;51.196;7.518;2023-10-13T04:49:14;96471.00;;;15.73
57468;BMP280;43311;51.196;7.518;2023-10-13T04:52:15;96475.56;;;15.72
57468;BMP280;43311;51.196;7.518;2023-10-13T04:55:00;96470.28;;;15.81
57468;BMP280;43311;51.196;7.518;2023-10-13T04:57:35;96451.91;;;15.77
57468;BMP280;43311;51.196;7.518;2023-10-13T05:00:13;96461.47;;;15.75
57468;BMP280;43311;51.196;7.518;2023-10-13T05:02:58;96437.22;;;15.76
57468;BMP280;43311;51.196;7.518;2023-10-13T05:05:27;96446.19;;;15.79
57468;BMP280;43311;51.196;7.518;2023-10-13T05:08:12;96449.28;;;15.77
57468;BMP280;43311;51.196;7.518;2023-10-13T05:10:56;96449.84;;;15.81
57468;BMP280;43311;51.196;7.518;2023-10-13T05:14:00;96438.09;;;15.82
57468;BMP280;43311;51.196;7.518;2023-10-13T05:16:45;96439.88;;;15.85
57468;BMP280;43311;51.196;7.518;2023-10-13T05:19:29;96437.50;;;15.87
57468;BMP280;43311;51.196;7.518;2023-10-13T05:22:13;96425.75;;;15.88
57468;BMP280;43311;51.196;7.518;2023-10-13T05:24:57;96421.63;;;15.87
57468;BMP280;43311;51.196;7.518;2023-10-13T05:27:42;96427.38;;;15.95
57468;BMP280;43311;51.196;7.518;2023-10-13T05:30:25;96423.72;;;15.92
57468;BMP280;43311;51.196;7.518;2023-10-13T05:33:10;96408.41;;;15.96
57468;BMP280;43311;51.196;7.518;2023-10-13T05:35:53;96416.50;;;15.93
57468;BMP280;43311;51.196;7.518;2023-10-13T05:38:37;96419.25;;;15.98
57468;BMP280;43311;51.196;7.518;2023-10-13T05:41:22;96413.84;;;15.93
57468;BMP280;43311;51.196;7.518;2023-10-13T05:44:06;96412.22;;;15.95
57468;BMP280;43311;51.196;7.518;2023-10-13T05:46:49;96426.31;;;16.01
57468;BMP280;43311;51.196;7.518;2023-10-13T05:49:26;96426.63;;;16.03
57468;BMP280;43311;51.196;7.518;2023-10-13T05:52:06;96417.94;;;16.03
57468;BMP280;43311;51.196;7.518;2023-10-13T05:54:45;96429.53;;;16.05
57468;BMP280;43311;51.196;7.518;2023-10-13T05:57:29;96397.78;;;16.05
57468;BMP280;43311;51.196;7.518;2023-10-13T06:00:14;96394.59;;;16.01
57468;BMP280;43311;51.196;7.518;2023-10-13T06:02:58;96414.53;;;16.11
57468;BMP280;43311;51.196;7.518;2023-10-13T06:05:42;96418.03;;;16.17
57468;BMP280;43311;51.196;7.518;2023-10-13T06:08:26;96417.03;;;16.15
57468;BMP280;43311;51.196;7.518;2023-10-13T06:11:10;96421.88;;;16.16
57468;BMP280;43311;51.196;7.518;2023-10-13T06:13:54;96404.69;;;16.12
57468;BMP280;43311;51.196;7.518;2023-10-13T06:16:38;96418.34;;;16.10
57468;BMP280;43311;51.196;7.518;2023-10-13T06:19:22;96426.88;;;16.14
57468;BMP280;43311;51.196;7.518;2023-10-13T06:22:06;96445.06;;;16.21
57468;BMP280;43311;51.196;7.518;2023-10-13T06:24:50;96442.00;;;16.23
57468;BMP280;43311;51.196;7.518;2023-10-13T06:27:34;96452.00;;;16.28
57468;BMP280;43311;51.196;7.518;2023-10-13T06:30:18;96436.56;;;16.26
57468;BMP280;43311;51.196;7.518;2023-10-13T06:32:44;96423.03;;;16.24
57468;BMP280;43311;51.196;7.518;2023-10-13T06:35:11;96435.53;;;16.33
57468;BMP280;43311;51.196;7.518;2023-10-13T06:37:52;96454.75;;;16.33
57468;BMP280;43311;51.196;7.518;2023-10-13T06:40:17;96464.00;;;16.38
57468;BMP280;43311;51.196;7.518;2023-10-13T06:43:15;96464.91;;;16.35
57468;BMP280;43311;51.196;7.518;2023-10-13T06:45:48;96446.34;;;16.43
57468;BMP280;43311;51.196;7.518;2023-10-13T06:48:32;96450.88;;;16.52
57468;BMP280;43311;51.196;7.518;2023-10-13T06:51:03;96447.16;;;16.58
57468;BMP280;43311;51.196;7.518;2023-10-13T06:53:44;96438.50;;;16.58
57468;BMP280;43311;51.196;7.518;2023-10-13T06:56:13;96438.22;;;16.56
57468;BMP280;43311;51.196;7.518;2023-10-13T06:58:44;96431.03;;;16.47
57468;BMP280;43311;51.196;7.518;2023-10-13T07:01:11;96443.09;;;16.48
57468;BMP280;43311;51.196;7.518;2023-10-13T07:03:42;96447.66;;;16.48
57468;BMP280;43311;51.196;7.518;2023-10-13T07:06:08;96455.47;;;16.42
57468;BMP280;43311;51.196;7.518;2023-10-13T07:08:43;96434.47;;;16.39
57468;BMP280;43311;51.196;7.518;2023-10-13T07:11:26;96415.94;;;16.39
57468;BMP280;43311;51.196;7.518;2023-10-13T07:14:04;96413.28;;;16.39
57468;BMP280;43311;51.196;7.518;2023-10-13T07:16:43;96395.78;;;16.42
57468;BMP280;43311;51.196;7.518;2023-10-13T07:19:15;96393.88;;;16.42
57468;BMP280;43311;51.196;7.518;2023-10-13T07:21:44;96370.94;;;16.39
57468;BMP280;43311;51.196;7.518;2023-10-13T07:24:14;96371.25;;;16.41
57468;BMP280;43311;51.196;7.518;2023-10-13T07:26:41;96387.97;;;16.47
57468;BMP280;43311;51.196;7.518;2023-10-13T07:29:11;96387.22;;;16.46
57468;BMP280;43311;51.196;7.518;2023-10-13T07:31:37;96396.16;;;16.58
57468;BMP280;43311;51.196;7.518;2023-10-13T07:34:07;96387.03;;;16.59
57468;BMP280;43311;51.196;7.518;2023-10-13T07:36:47;96387.66;;;16.54
57468;BMP280;43311;51.196;7.518;2023-10-13T07:39:14;96388.22;;;16.58
57468;BMP280;43311;51.196;7.518;2023-10-13T07:41:48;96381.13;;;16.64
57468;BMP280;43311;51.196;7.518;2023-10-13T07:44:23;96378.63;;;16.60
57468;BMP280;43311;51.196;7.518;2023-10-13T07:46:57;96386.97;;;16.68
57468;BMP280;43311;51.196;7.518;2023-10-13T07:49:36;96387.53;;;16.72
57468;BMP280;43311;51.196;7.518;2023-10-13T07:52:06;96374.75;;;16.70
57468;BMP280;43311;51.196;7.518;2023-10-13T07:54:52;96373.88;;;16.73
57468;BMP280;43311;51.196;7.518;2023-10-13T07:57:37;96372.56;;;16.69
57468;BMP280;43311;51.196;7.518;2023-10-13T08:00:18;96372.56;;;16.69
57468;BMP280;43311;51.196;7.518;2023-10-13T08:03:02;96364.16;;;16.70
57468;BMP280;43311;51.196;7.518;2023-10-13T08:05:43;96370.13;;;16.80
57468;BMP280;43311;51.196;7.518;2023-10-13T08:08:24;96372.44;;;16.87
57468;BMP280;43311;51.196;7.518;2023-10-13T08:10:57;96369.19;;;16.92
57468;BMP280;43311;51.196;7.518;2023-10-13T08:13:28;96363.88;;;16.92
57468;BMP280;43311;51.196;7.518;2023-10-13T08:15:53;96361.78;;;16.96
57468;BMP280;43311;51.196;7.518;2023-10-13T08:18:19;96361.00;;;17.04
57468;BMP280;43311;51.196;7.518;2023-10-13T08:21:00;96356.06;;;17.11
57468;BMP280;43311;51.196;7.518;2023-10-13T08:23:31;96351.34;;;17.15
57468;BMP280;43311;51.196;7.518;2023-10-13T08:26:15;96344.56;;;17.14
57468;BMP280;43311;51.196;7.518;2023-10-13T08:28:59;96359.66;;;17.23
57468;BMP280;43311;51.196;7.518;2023-10-13T08:31:47;96349.19;;;17.28
57468;BMP280;43311;51.196;7.518;2023-10-13T08:34:34;96349.84;;;17.38
57468;BMP280;43311;51.196;7.518;2023-10-13T08:37:08;96332.03;;;17.38
57468;BMP280;43311;51.196;7.518;2023-10-13T08:39:53;96324.97;;;17.35
57468;BMP280;43311;51.196;7.518;2023-10-13T08:42:36;96328.22;;;17.39
57468;BMP280;43311;51.196;7.518;2023-10-13T08:45:12;96320.34;;;17.45
57468;BMP280;43311;51.196;7.518;2023-10-13T08:47:54;96325.53;;;17.54
57468;BMP280;43311;51.196;7.518;2023-10-13T08:50:36;96318.22;;;17.63
57468;BMP280;43311;51.196;7.518;2023-10-13T08:53:28;96313.03;;;17.69
57468;BMP280;43311;51.196;7.518;2023-10-13T08:56:05;96321.44;;;17.82
57468;BMP280;43311;51.196;7.518;2023-10-13T08:58:37;96326.91;;;17.92
57468;BMP280;43311;51.196;7.518;2023-10-13T09:01:36;96319.84;;;18.04
57468;BMP280;43311;51.196;7.518;2023-10-13T09:04:18;96330.38;;;18.13
57468;BMP280;43311;51.196;7.518;2023-10-13T09:06:51;96318.09;;;18.30
57468;BMP280;43311;51.196;7.518;2023-10-13T09:09:32;96316.03;;;18.39
57468;BMP280;43311;51.196;7.518;2023-10-13T09:12:29;96315.97;;;18.53
57468;BMP280;43311;51.196;7.518;2023-10-13T09:15:16;96321.41;;;18.64
57468;BMP280;43311;51.196;7.518;2023-10-13T09:17:45;96322.78;;;18.74
57468;BMP280;43311;51.196;7.518;2023-10-13T09:20:17;96310.53;;;18.82
57468;BMP280;43311;51.196;7.518;2023-10-13T09:22:53;96324.09;;;18.84
57468;BMP280;43311;51.196;7.518;2023-10-13T09:25:31;96316.50;;;18.77
57468;BMP280;43311;51.196;7.518;2023-10-13T09:28:00;96317.31;;;18.83
57468;BMP280;43311;51.196;7.518;2023-10-13T09:30:26;96300.72;;;18.68
57468;BMP280;43311;51.196;7.518;2023-10-13T09:33:04;96295.22;;;18.72
57468;BMP280;43311;51.196;7.518;2023-10-13T09:35:31;96308.81;;;18.59
57468;BMP280;43311;51.196;7.518;2023-10-13T09:38:00;96302.03;;;18.58
57468;BMP280;43311;51.196;7.518;2023-10-13T09:40:27;96299.38;;;18.78
57468;BMP280;43311;51.196;7.518;2023-10-13T09:43:03;96284.09;;;18.93
57468;BMP280;43311;51.196;7.518;2023-10-13T09:45:34;96278.31;;;18.95
57468;BMP280;43311;51.196;7.518;2023-10-13T09:48:10;96281.09;;;18.86
57468;BMP280;43311;51.196;7.518;2023-10-13T09:50:43;96286.22;;;19.09
57468;BMP280;43311;51.196;7.518;2023-10-13T09:53:11;96278.72;;;19.33
57468;BMP280;43311;51.196;7.518;2023-10-13T09:55:47;96263.63;;;19.19
57468;BMP280;43311;51.196;7.518;2023-10-13T09:58:14;96266.88;;;19.34
57468;BMP280;43311;51.196;7.518;2023-10-13T10:00:44;96273.94;;;19.37
57468;BMP280;43311;51.196;7.518;2023-10-13T10:03:15;96270.94;;;19.29
57468;BMP280;43311;51.196;7.518;2023-10-13T10:06:02;96259.88;;;19.31
57468;BMP280;43311;51.196;7.518;2023-10-13T10:08:50;96248.28;;;19.34
57468;BMP280;43311;51.196;7.518;2023-10-13T10:11:32;96264.31;;;19.45
57468;BMP280;43311;51.196;7.518;2023-10-13T10:17:08;96258.38;;;19.55
57468;BMP280;43311;51.196;7.518;2023-10-13T10:19:49;96265.72;;;19.40
57468;BMP280;43311;51.196;7.518;2023-10-13T10:22:25;96251.09;;;19.50
57468;BMP280;43311;51.196;7.518;2023-10-13T10:25:05;96243.22;;;19.67
57468;BMP280;43311;51.196;7.518;2023-10-13T10:27:59;96257.66;;;19.91
57468;BMP280;43311;51.196;7.518;2023-10-13T10:30:29;96259.44;;;19.99
57468;BMP280;43311;51.196;7.518;2023-10-13T10:32:56;96240.63;;;20.08
57468;BMP280;43311;51.196;7.518;2023-10-13T10:35:25;96249.16;;;20.18
57468;BMP280;43311;51.196;7.518;2023-10-13T10:38:17;96243.25;;;20.03
57468;BMP280;43311;51.196;7.518;2023-10-13T10:40:57;96264.41;;;19.87
57468;BMP280;43311;51.196;7.518;2023-10-13T10:43:24;96253.38;;;19.93
57468;BMP280;43311;51.196;7.518;2023-10-13T10:45:52;96257.16;;;20.23
57468;BMP280;43311;51.196;7.518;2023-10-13T10:48:25;96238.66;;;20.56
57468;BMP280;43311;51.196;7.518;2023-10-13T10:50:57;96237.94;;;20.50
57468;BMP280;43311;51.196;7.518;2023-10-13T10:53:24;96236.59;;;20.24
57468;BMP280;43311;51.196;7.518;2023-10-13T10:56:06;96236.88;;;20.31
57468;BMP280;43311;51.196;7.518;2023-10-13T10:58:34;96239.88;;;20.55
57468;BMP280;43311;51.196;7.518;2023-10-13T11:01:09;96237.00;;;20.64
57468;BMP280;43311;51.196;7.518;2023-10-13T11:04:00;96227.13;;;20.75
57468;BMP280;43311;51.196;7.518;2023-10-13T11:06:46;96223.94;;;20.66
57468;BMP280;43311;51.196;7.518;2023-10-13T11:09:12;96225.06;;;20.49
57468;BMP280;43311;51.196;7.518;2023-10-13T11:11:46;96203.72;;;20.38
57468;BMP280;43311;51.196;7.518;2023-10-13T11:14:25;96198.16;;;20.41
57468;BMP280;43311;51.196;7.518;2023-10-13T11:16:56;96184.91;;;20.63
57468;BMP280;43311;51.196;7.518;2023-10-13T11:22:19;96193.16;;;20.65
57468;BMP280;43311;51.196;7.518;2023-10-13T11:25:07;96205.75;;;20.59
57468;BMP280;43311;51.196;7.518;2023-10-13T11:27:41;96186.59;;;20.55
57468;BMP280;43311;51.196;7.518;2023-10-13T11:30:21;96189.97;;;20.50
57468;BMP280;43311;51.196;7.518;2023-10-13T11:35:38;96183.91;;;20.44
57468;BMP280;43311;51.196;7.518;2023-10-13T11:38:20;96177.19;;;20.65
57468;BMP280;43311;51.196;7.518;2023-10-13T11:40:54;96182.56;;;20.81
57468;BMP280;43311;51.196;7.518;2023-10-13T11:43:28;96171.91;;;20.87
57468;BMP280;43311;51.196;7.518;2023-10-13T11:45:56;96172.88;;;20.78
57468;BMP280;43311;51.196;7.518;2023-10-13T11:48:34;96160.72;;;20.72
57468;BMP280;43311;51.196;7.518;2023-10-13T11:51:02;96175.94;;;20.55
57468;BMP280;43311;51.196;7.518;2023-10-13T11:53:35;96164.28;;;20.47
57468;BMP280;43311;51.196;7.518;2023-10-13T11:56:01;96165.00;;;20.48
57468;BMP280;43311;51.196;7.518;2023-10-13T11:58:34;96158.47;;;20.49
57468;BMP280;43311;51.196;7.518;2023-10-13T12:00:59;96158.97;;;20.47
57468;BMP280;43311;51.196;7.518;2023-10-13T12:03:44;96166.50;;;20.54
57468;BMP280;43311;51.196;7.518;2023-10-13T12:06:30;96156.28;;;20.36
57468;BMP280;43311;51.196;7.518;2023-10-13T12:09:09;96151.41;;;20.29
57468;BMP280;43311;51.196;7.518;2023-10-13T12:11:44;96150.66;;;20.23
57468;BMP280;43311;51.196;7.518;2023-10-13T12:14:11;96144.63;;;20.23
57468;BMP280;43311;51.196;7.518;2023-10-13T12:16:48;96137.34;;;20.23
57468;BMP280;43311;51.196;7.518;2023-10-13T12:19:25;96127.91;;;20.28
57468;BMP280;43311;51.196;7.518;2023-10-13T12:21:57;96127.97;;;20.44
57468;BMP280;43311;51.196;7.518;2023-10-13T12:24:27;96109.13;;;20.64
57468;BMP280;43311;51.196;7.518;2023-10-13T12:27:03;96116.88;;;20.73
57468;BMP280;43311;51.196;7.518;2023-10-13T12:29:44;96096.31;;;20.90
57468;BMP280;43311;51.196;7.518;2023-10-13T12:32:11;96102.63;;;21.14
57468;BMP280;43311;51.196;7.518;2023-10-13T12:34:38;96104.31;;;21.12
57468;BMP280;43311;51.196;7.518;2023-10-13T12:37:23;96098.50;;;20.97
57468;BMP280;43311;51.196;7.518;2023-10-13T12:40:09;96110.13;;;20.77
57468;BMP280;43311;51.196;7.518;2023-10-13T12:42:53;96104.28;;;20.62
57468;BMP280;43311;51.196;7.518;2023-10-13T12:45:44;96115.16;;;20.59
57468;BMP280;43311;51.196;7.518;2023-10-13T12:48:29;96102.09;;;20.61
57468;BMP280;43311;51.196;7.518;2023-10-13T12:51:14;96098.47;;;20.64
57468;BMP280;43311;51.196;7.518;2023-10-13T12:53:53;96099.91;;;20.54
57468;BMP280;43311;51.196;7.518;2023-10-13T12:56:20;96107.63;;;20.41
57468;BMP280;43311;51.196;7.518;2023-10-13T12:58:54;96107.38;;;20.39
57468;BMP280;43311;51.196;7.518;2023-10-13T13:01:24;96111.00;;;20.36
57468;BMP280;43311;51.196;7.518;2023-10-13T13:03:52;96106.41;;;20.31
57468;BMP280;43311;51.196;7.518;2023-10-13T13:06:25;96110.00;;;20.28
57468;BMP280;43311;51.196;7.518;2023-10-13T13:08:54;96090.16;;;20.29
57468;BMP280;43311;51.196;7.518;2023-10-13T13:11:20;96088.22;;;20.24
57468;BMP280;43311;51.196;7.518;2023-10-13T13:13:46;96101.28;;;20.28
57468;BMP280;43311;51.196;7.518;2023-10-13T13:16:12;96095.47;;;20.29
57468;BMP280;43311;51.196;7.518;2023-10-13T13:18:38;96093.31;;;20.28
57468;BMP280;43311;51.196;7.518;2023-10-13T13:21:04;96100.56;;;20.27
57468;BMP280;43311;51.196;7.518;2023-10-13T13:23:32;96085.34;;;20.39
57468;BMP280;43311;51.196;7.518;2023-10-13T13:25:59;96086.03;;;20.28
57468;BMP280;43311;51.196;7.518;2023-10-13T13:28:25;96082.91;;;20.30
57468;BMP280;43311;51.196;7.518;2023-10-13T13:30:54;96078.56;;;20.32
57468;BMP280;43311;51.196;7.518;2023-10-13T13:33:19;96094.06;;;20.39
57468;BMP280;43311;51.196;7.518;2023-10-13T13:35:49;96080.72;;;20.39
57468;BMP280;43311;51.196;7.518;2023-10-13T13:38:14;96081.47;;;20.45
57468;BMP280;43311;51.196;7.518;2023-10-13T13:40:47;96080.75;;;20.34
57468;BMP280;43311;51.196;7.518;2023-10-13T13:43:15;96075.41;;;20.34
57468;BMP280;43311;51.196;7.518;2023-10-13T13:45:59;96074.94;;;20.30
57468;BMP280;43311;51.196;7.518;2023-10-13T13:48:28;96063.31;;;20.33
57468;BMP280;43311;51.196;7.518;2023-10-13T13:50:54;96061.84;;;20.32
57468;BMP280;43311;51.196;7.518;2023-10-13T13:53:30;96060.66;;;20.27
57468;BMP280;43311;51.196;7.518;2023-10-13T13:56:03;96064.50;;;20.26
57468;BMP280;43311;51.196;7.518;2023-10-13T13:58:31;96061.34;;;20.22
57468;BMP280;43311;51.196;7.518;2023-10-13T14:01:01;96071.53;;;20.24
57468;BMP280;43311;51.196;7.518;2023-10-13T14:03:38;96074.69;;;20.39
57468;BMP280;43311;51.196;7.518;2023-10-13T14:06:10;96079.75;;;20.37
57468;BMP280;43311;51.196;7.518;2023-10-13T14:08:42;96059.91;;;20.21
57468;BMP280;43311;51.196;7.518;2023-10-13T14:11:10;96043.56;;;19.87
57468;BMP280;43311;51.196;7.518;2023-10-13T14:13:39;96042.06;;;19.75
57468;BMP280;43311;51.196;7.518;2023-10-13T14:16:22;96035.50;;;19.70
57468;BMP280;43311;51.196;7.518;2023-10-13T14:18:50;96036.25;;;19.71
57468;BMP280;43311;51.196;7.518;2023-10-13T14:21:16;96033.34;;;19.74
57468;BMP280;43311;51.196;7.518;2023-10-13T14:23:49;96029.78;;;19.88
57468;BMP280;43311;51.196;7.518;2023-10-13T14:26:15;96037.28;;;19.89
57468;BMP280;43311;51.196;7.518;2023-10-13T14:28:46;96037.31;;;20.00
57468;BMP280;43311;51.196;7.518;2023-10-13T14:31:29;96034.22;;;20.13
57468;BMP280;43311;51.196;7.518;2023-10-13T14:33:55;96034.69;;;20.11
57468;BMP280;43311;51.196;7.518;2023-10-13T14:36:22;96033.94;;;20.05
57468;BMP280;43311;51.196;7.518;2023-10-13T14:38:47;96031.78;;;20.04
57468;BMP280;43311;51.196;7.518;2023-10-13T14:41:16;96026.44;;;20.04
57468;BMP280;43311;51.196;7.518;2023-10-13T14:43:42;96025.75;;;20.03
57468;BMP280;43311;51.196;7.518;2023-10-13T14:46:16;96021.34;;;19.95
57468;BMP280;43311;51.196;7.518;2023-10-13T14:48:43;96050.19;;;20.02
57468;BMP280;43311;51.196;7.518;2023-10-13T14:51:12;96030.53;;;19.99
57468;BMP280;43311;51.196;7.518;2023-10-13T14:53:48;96039.03;;;20.03
57468;BMP280;43311;51.196;7.518;2023-10-13T14:56:14;96018.94;;;20.02
57468;BMP280;43311;51.196;7.518;2023-10-13T14:58:41;96017.00;;;19.97
57468;BMP280;43311;51.196;7.518;2023-10-13T15:01:17;96013.38;;;19.95
57468;BMP280;43311;51.196;7.518;2023-10-13T15:03:44;96022.06;;;19.90
57468;BMP280;43311;51.196;7.518;2023-10-13T15:06:19;96007.50;;;19.91
57468;BMP280;43311;51.196;7.518;2023-10-13T15:08:55;96026.69;;;19.95
57468;BMP280;43311;51.196;7.518;2023-10-13T15:11:22;96020.81;;;19.91